Time;durP1;ratioP1;P1;durP2;ratioP2;P2;SDS_P1;SDS_P2;PMS_P1;PMS_P2;Temp;Humidity;BMP_temperature;BMP_pressure;BME280_temperature;BME280_humidity;BME280_pressure;Samples;Min_cycle;Max_cycle;Signal;HPM_P1;HPM_P2
2022/03/17 00:01:25;;;;;;;;;9.00;9.00;;;;;12.86;64.90;101972.69;5058212;28;45404;-59
2022/03/17 00:03:51;;;;;;;;;8.00;5.75;;;;;12.86;64.74;101980.63;5052269;28;45563;-60
2022/03/17 00:06:18;;;;;;;;;10.00;10.00;;;;;12.82;65.01;101981.72;5049903;28;46188;-58
2022/03/17 00:08:43;;;;;;;;;15.25;10.75;;;;;12.83;64.99;101986.06;5050913;28;45178;-58
2022/03/17 00:11:09;;;;;;;;;8.00;8.00;;;;;12.80;65.03;101986.22;5051117;28;45288;-58
2022/03/17 00:13:35;;;;;;;;;10.50;9.25;;;;;12.77;65.19;101991.66;5052891;28;46528;-60
2022/03/17 00:16:00;;;;;;;;;13.75;11.00;;;;;12.75;65.17;101995.31;5048375;28;45486;-60
2022/03/17 00:18:26;;;;;;;;;15.75;12.50;;;;;12.76;65.23;101999.66;5052506;28;45431;-58
2022/03/17 00:20:51;;;;;;;;;13.50;10.25;;;;;12.75;65.27;102011.16;5051235;28;45439;-59
2022/03/17 00:23:18;;;;;;;;;11.50;10.00;;;;;12.76;65.11;102011.09;5050979;28;45545;-59
2022/03/17 00:25:44;;;;;;;;;16.00;12.50;;;;;12.75;65.18;102013.81;5049684;28;45534;-59
2022/03/17 00:28:10;;;;;;;;;12.50;12.50;;;;;12.73;65.29;102005.09;5049808;28;45450;-59
2022/03/17 00:30:35;;;;;;;;;18.50;11.50;;;;;12.72;65.43;102004.25;5050625;28;45513;-60
2022/03/17 00:33:01;;;;;;;;;16.75;11.75;;;;;12.70;65.32;102015.81;5050971;28;45693;-59
2022/03/17 00:35:35;;;;;;;;;13.75;12.75;;;;;12.66;65.48;102014.25;5051305;28;46024;-60
2022/03/17 00:38:02;;;;;;;;;14.75;13.00;;;;;12.65;65.61;102026.63;5051883;28;45384;-59
2022/03/17 00:40:29;;;;;;;;;14.00;13.25;;;;;12.64;65.55;102026.66;5041451;28;45366;-59
2022/03/17 00:42:55;;;;;;;;;20.25;15.00;;;;;12.62;65.72;102033.81;5051105;28;45523;-60
2022/03/17 00:45:22;;;;;;;;;18.25;17.25;;;;;12.63;65.65;102038.19;5047743;28;45495;-62
2022/03/17 00:47:48;;;;;;;;;22.75;19.50;;;;;12.62;65.98;102044.41;5051881;28;45503;-59
2022/03/17 00:50:13;;;;;;;;;19.50;18.00;;;;;12.63;65.97;102043.47;5052654;28;45511;-60
2022/03/17 00:52:39;;;;;;;;;22.00;21.00;;;;;12.62;65.94;102058.47;5051469;28;45447;-60
2022/03/17 00:55:06;;;;;;;;;20.25;18.25;;;;;12.63;65.96;102068.13;5051327;28;45436;-59
2022/03/17 00:57:32;;;;;;;;;27.00;21.75;;;;;12.62;65.72;102049.69;5049568;28;45318;-60
2022/03/17 00:59:58;;;;;;;;;26.00;23.50;;;;;12.58;65.92;102059.56;5054222;28;45379;-63
2022/03/17 01:02:23;;;;;;;;;22.00;19.50;;;;;12.57;65.89;102068.41;5052810;28;45228;-60
2022/03/17 01:04:49;;;;;;;;;20.00;17.25;;;;;12.56;66.29;102074.63;5048761;28;45382;-60
2022/03/17 01:07:14;;;;;;;;;21.50;19.25;;;;;12.53;66.11;102080.06;5049403;28;45383;-58
2022/03/17 01:09:40;;;;;;;;;26.25;23.25;;;;;12.47;66.19;102067.97;5053905;28;45358;-58
2022/03/17 01:12:05;;;;;;;;;27.00;21.75;;;;;12.45;66.30;102072.47;5050685;28;45426;-61
2022/03/17 01:14:31;;;;;;;;;18.75;18.25;;;;;12.46;66.35;102066.25;5050391;28;46588;-60
2022/03/17 01:16:56;;;;;;;;;24.75;19.75;;;;;12.45;66.53;102082.19;5049860;28;45367;-61
2022/03/17 01:19:22;;;;;;;;;24.25;20.50;;;;;12.46;66.69;102086.53;5047244;28;45332;-60
2022/03/17 01:21:49;;;;;;;;;22.50;20.50;;;;;12.45;66.53;102088.31;5050053;28;45320;-61
2022/03/17 01:24:16;;;;;;;;;26.00;19.25;;;;;12.44;66.66;102083.13;5048861;28;45358;-60
2022/03/17 01:26:41;;;;;;;;;21.00;19.50;;;;;12.41;66.59;102092.06;5048626;28;45330;-61
2022/03/17 01:29:07;;;;;;;;;23.25;22.50;;;;;12.40;66.93;102089.44;5051951;28;45165;-59
2022/03/17 01:31:33;;;;;;;;;23.25;20.75;;;;;12.38;66.88;102089.53;5051469;28;45325;-61
2022/03/17 01:33:59;;;;;;;;;25.75;21.25;;;;;12.41;66.81;102086.75;5052915;28;45860;-63
2022/03/17 01:36:26;;;;;;;;;26.75;22.50;;;;;12.40;66.78;102097.38;5050361;28;45349;-61
2022/03/17 01:38:52;;;;;;;;;20.00;18.25;;;;;12.37;67.13;102098.38;5050336;28;45439;-63
2022/03/17 01:41:18;;;;;;;;;20.00;17.25;;;;;12.36;66.73;102109.03;5051555;28;45495;-61
2022/03/17 01:43:43;;;;;;;;;14.75;14.25;;;;;12.36;66.98;102109.88;5053350;28;46108;-61
2022/03/17 01:46:11;;;;;;;;;28.25;23.25;;;;;12.38;66.96;102105.38;5049895;28;45460;-59
2022/03/17 01:48:37;;;;;;;;;22.00;20.25;;;;;12.39;66.95;102112.38;5051340;28;45304;-58
2022/03/17 01:51:03;;;;;;;;;22.25;19.50;;;;;12.37;66.94;102103.66;5049875;28;45231;-59
2022/03/17 01:53:28;;;;;;;;;21.75;19.50;;;;;12.39;66.90;102112.38;5048099;28;46167;-59
2022/03/17 01:55:54;;;;;;;;;23.25;20.25;;;;;12.40;67.22;102118.53;5047871;28;45468;-59
2022/03/17 01:58:20;;;;;;;;;19.00;17.00;;;;;12.39;67.03;102119.44;5051311;28;45266;-59
2022/03/17 02:00:47;;;;;;;;;28.75;23.25;;;;;12.38;66.72;102126.53;5040615;28;45470;-59
2022/03/17 02:03:13;;;;;;;;;24.75;21.50;;;;;12.38;66.86;102136.25;5040180;28;46921;-59
2022/03/17 02:05:39;;;;;;;;;23.75;21.25;;;;;12.40;66.89;102137.91;5049850;28;45253;-59
2022/03/17 02:08:09;;;;;;;;;21.25;21.25;;;;;12.37;66.97;102127.47;5057997;28;45351;-59
2022/03/17 02:13:22;;;;;;;;;19.50;17.50;;;;;12.40;66.85;102144.94;5039096;28;46172;-59
2022/03/17 02:15:54;;;;;;;;;21.75;16.75;;;;;12.40;66.66;102144.94;5060116;28;45326;-59
2022/03/17 02:18:21;;;;;;;;;20.25;16.00;;;;;12.34;66.56;102148.75;5060834;28;45423;-60
2022/03/17 02:20:48;;;;;;;;;22.25;20.25;;;;;12.35;66.45;102146.97;5060574;28;45582;-60
2022/03/17 02:26:04;;;;;;;;;21.00;17.50;;;;;12.27;66.59;102174.56;5060458;28;45301;-60
2022/03/17 02:28:31;;;;;;;;;21.00;17.75;;;;;12.23;66.89;102180.03;5060696;28;45268;-60
2022/03/17 02:30:59;;;;;;;;;21.25;16.75;;;;;12.22;66.79;102173.91;5060223;28;45347;-60
2022/03/17 02:33:26;;;;;;;;;18.00;17.75;;;;;12.21;66.86;102176.63;5060293;28;45647;-60
2022/03/17 02:35:53;;;;;;;;;27.75;20.00;;;;;12.17;66.62;102173.25;5060257;28;45248;-60
2022/03/17 02:38:20;;;;;;;;;26.50;20.25;;;;;12.13;66.88;102187.50;5042465;28;45399;-60
2022/03/17 02:40:48;;;;;;;;;22.25;19.50;;;;;12.13;66.97;102170.81;5054177;28;45382;-60
2022/03/17 02:43:14;;;;;;;;;23.25;18.25;;;;;12.13;66.87;102173.44;5040059;28;45250;-59
2022/03/17 02:45:41;;;;;;;;;25.25;21.75;;;;;12.12;67.02;102179.66;5039673;28;45278;-60
2022/03/17 02:48:07;;;;;;;;;21.75;19.25;;;;;12.14;67.10;102188.38;5040126;28;45257;-60
2022/03/17 02:50:34;;;;;;;;;20.50;18.00;;;;;12.16;66.96;102175.94;5040193;28;45340;-60
2022/03/17 02:53:05;;;;;;;;;20.00;17.00;;;;;12.16;66.92;102181.22;5039928;28;45467;-60
2022/03/17 02:55:35;;;;;;;;;16.75;15.25;;;;;12.15;66.93;102190.94;5046732;28;45493;-60
2022/03/17 02:58:01;;;;;;;;;19.75;17.50;;;;;12.13;66.80;102197.22;5060512;28;45400;-59
2022/03/17 03:00:26;;;;;;;;;20.50;19.50;;;;;12.14;66.98;102202.44;5063469;28;45493;-60
2022/03/17 03:02:52;;;;;;;;;22.25;19.50;;;;;12.13;66.50;102200.72;5062489;28;46045;-59
2022/03/17 03:05:18;;;;;;;;;18.50;18.00;;;;;12.08;66.36;102191.25;5054020;28;45233;-59
2022/03/17 03:07:44;;;;;;;;;19.50;18.75;;;;;12.02;66.44;102190.63;5058053;28;45337;-59
2022/03/17 03:10:10;;;;;;;;;17.75;16.50;;;;;12.04;66.57;102205.53;5063653;28;45369;-59
2022/03/17 03:12:37;;;;;;;;;18.00;16.25;;;;;12.03;66.27;102209.97;5063286;28;45486;-59
2022/03/17 03:15:03;;;;;;;;;17.25;16.00;;;;;12.00;65.86;102212.72;5063174;28;45268;-59
2022/03/17 03:17:29;;;;;;;;;15.75;13.00;;;;;11.99;65.89;102222.41;5063224;28;45334;-60
2022/03/17 03:19:54;;;;;;;;;19.00;16.50;;;;;11.97;65.82;102223.41;5063577;28;45269;-59
2022/03/17 03:22:20;;;;;;;;;13.50;12.25;;;;;11.95;65.65;102220.84;5063088;28;46558;-60
2022/03/17 03:24:47;;;;;;;;;15.75;15.00;;;;;11.92;65.45;102223.59;5063138;28;45394;-59
2022/03/17 03:27:13;;;;;;;;;12.75;11.50;;;;;11.87;65.15;102222.94;5063281;28;45451;-59
2022/03/17 03:29:38;;;;;;;;;17.00;17.00;;;;;11.79;65.14;102235.56;5061637;28;45505;-59
2022/03/17 03:32:04;;;;;;;;;16.00;15.00;;;;;11.74;65.58;102238.38;5062792;28;46342;-59
2022/03/17 03:34:31;;;;;;;;;22.75;18.50;;;;;11.72;65.62;102236.72;5063402;28;45302;-59
2022/03/17 03:39:41;;;;;;;;;20.75;17.25;;;;;11.65;65.57;102244.03;5063077;28;45549;-59
2022/03/17 03:42:08;;;;;;;;;17.25;12.50;;;;;11.63;65.85;102259.06;5027426;28;45516;-59
2022/03/17 03:44:35;;;;;;;;;18.25;14.75;;;;;11.63;65.63;102259.06;5042562;28;45220;-59
2022/03/17 03:47:00;;;;;;;;;15.25;12.00;;;;;11.62;65.56;102257.34;5042538;28;45440;-59
2022/03/17 03:49:26;;;;;;;;;16.50;14.50;;;;;11.61;65.57;102274.13;5042818;28;45399;-60
2022/03/17 03:51:51;;;;;;;;;15.75;13.75;;;;;11.60;65.66;102271.50;5042589;28;45287;-59
2022/03/17 03:54:18;;;;;;;;;18.50;16.00;;;;;11.60;65.46;102282.06;5042659;28;45317;-59
2022/03/17 03:56:46;;;;;;;;;18.50;15.50;;;;;11.58;65.33;102292.69;5042512;28;45316;-59
2022/03/17 03:59:20;;;;;;;;;14.75;14.75;;;;;11.54;65.66;102304.28;5042581;28;45387;-59
2022/03/17 04:01:47;;;;;;;;;13.75;10.25;;;;;11.46;65.28;102304.59;5042212;28;45308;-59
2022/03/17 04:04:17;;;;;;;;;12.75;11.00;;;;;11.40;65.18;102312.72;5051131;28;45304;-59
2022/03/17 04:06:47;;;;;;;;;16.00;13.25;;;;;11.34;64.98;102309.44;5049449;28;45310;-59
2022/03/17 04:09:14;;;;;;;;;10.25;10.25;;;;;11.28;64.26;102314.94;5062280;28;45467;-59
2022/03/17 04:11:44;;;;;;;;;14.00;11.50;;;;;11.18;64.45;102320.56;5061358;28;46129;-59
2022/03/17 04:14:10;;;;;;;;;7.50;5.00;;;;;11.12;64.11;102323.41;5062604;28;45249;-59
2022/03/17 04:16:36;;;;;;;;;10.75;10.50;;;;;11.09;64.03;102335.88;5062303;28;45265;-59
2022/03/17 04:19:02;;;;;;;;;15.50;10.50;;;;;11.07;63.97;102332.44;5062627;28;45221;-60
2022/03/17 04:21:28;;;;;;;;;10.50;10.50;;;;;11.09;64.31;102335.88;5061910;28;46194;-60
2022/03/17 04:23:54;;;;;;;;;14.25;11.00;;;;;11.07;64.00;102348.25;5060885;28;45379;-59
2022/03/17 04:26:19;;;;;;;;;12.25;8.50;;;;;11.06;64.00;102346.50;5061824;28;45492;-59
2022/03/17 04:28:45;;;;;;;;;9.75;9.75;;;;;11.06;64.57;102357.06;5062398;28;45469;-60
2022/03/17 04:31:11;;;;;;;;;11.75;10.25;;;;;11.02;64.02;102355.47;5061945;28;46045;-59
2022/03/17 04:33:36;;;;;;;;;10.50;9.75;;;;;11.01;64.10;102361.66;5061993;28;45359;-59
2022/03/17 04:36:03;;;;;;;;;11.50;9.50;;;;;10.98;64.17;102372.28;5062390;28;45314;-59
2022/03/17 04:38:29;;;;;;;;;8.00;7.75;;;;;10.95;64.10;102369.78;5062212;28;45423;-59
2022/03/17 04:40:54;;;;;;;;;9.00;8.00;;;;;10.92;63.97;102383.06;5054810;28;45885;-59
2022/03/17 04:43:20;;;;;;;;;8.00;7.25;;;;;10.87;64.01;102375.31;5041731;28;45232;-59
2022/03/17 04:45:47;;;;;;;;;12.00;8.00;;;;;10.89;64.14;102381.38;5041730;28;45179;-59
2022/03/17 04:48:14;;;;;;;;;10.50;8.75;;;;;10.90;63.58;102384.00;5041814;28;45214;-59
2022/03/17 04:50:40;;;;;;;;;11.75;10.75;;;;;10.95;63.80;102388.22;5041754;28;45429;-59
2022/03/17 04:55:50;;;;;;;;;7.00;6.00;;;;;11.02;63.49;102384.47;5041762;28;45437;-59
2022/03/17 04:58:16;;;;;;;;;10.00;8.75;;;;;11.04;63.12;102394.03;5041888;28;45600;-59
2022/03/17 05:00:42;;;;;;;;;6.00;6.00;;;;;11.04;62.86;102396.69;5041149;28;45567;-59
2022/03/17 05:03:08;;;;;;;;;8.00;7.00;;;;;11.01;62.97;102398.56;5041371;28;45293;-59
2022/03/17 05:05:34;;;;;;;;;9.75;7.00;;;;;10.98;63.37;102403.94;5051810;28;45411;-60
2022/03/17 05:08:00;;;;;;;;;8.50;5.25;;;;;10.98;63.28;102403.94;5058440;28;45429;-60
2022/03/17 05:10:27;;;;;;;;;5.25;4.75;;;;;11.01;63.16;102407.34;5061372;28;45330;-59
2022/03/17 05:12:53;;;;;;;;;6.50;6.50;;;;;11.01;62.85;102409.13;5061368;28;45304;-60
2022/03/17 05:15:18;;;;;;;;;7.75;4.00;;;;;10.99;63.30;102406.53;5061548;28;45318;-60
2022/03/17 05:17:43;;;;;;;;;7.25;7.00;;;;;10.98;63.16;102417.13;5061672;28;45209;-59
2022/03/17 05:20:12;;;;;;;;;5.00;5.00;;;;;10.92;63.28;102422.63;5061299;28;45819;-60
2022/03/17 05:22:39;;;;;;;;;8.75;6.50;;;;;10.92;63.08;102422.63;5060559;28;45359;-59
2022/03/17 05:25:06;;;;;;;;;7.00;6.75;;;;;10.87;62.88;102434.16;5061550;28;45351;-60
2022/03/17 05:27:36;;;;;;;;;6.75;4.00;;;;;10.85;63.04;102437.78;5061354;28;45475;-60
2022/03/17 05:30:03;;;;;;;;;5.25;5.25;;;;;10.82;63.03;102444.03;5061011;28;45988;-59
2022/03/17 05:32:28;;;;;;;;;8.00;7.00;;;;;10.80;63.33;102440.56;5061005;28;45400;-60
2022/03/17 05:34:54;;;;;;;;;9.25;7.00;;;;;10.79;62.97;102452.00;5061528;28;45372;-59
2022/03/17 05:37:19;;;;;;;;;7.25;4.75;;;;;10.78;63.32;102455.56;5061190;28;45316;-59
2022/03/17 05:39:44;;;;;;;;;8.00;4.00;;;;;10.81;63.47;102465.13;5060939;28;45668;-59
2022/03/17 05:42:10;;;;;;;;;4.00;4.00;;;;;10.85;63.15;102466.78;5043391;28;45404;-60
2022/03/17 05:44:35;;;;;;;;;8.00;7.25;;;;;10.90;63.73;102473.63;5041083;28;45233;-60
2022/03/17 05:47:01;;;;;;;;;7.00;5.50;;;;;10.95;63.30;102475.22;5040696;28;45277;-60
2022/03/17 05:49:28;;;;;;;;;8.00;5.00;;;;;10.98;63.28;102473.38;5022823;28;46853;-59
2022/03/17 05:51:53;;;;;;;;;10.00;7.25;;;;;10.97;62.88;102473.41;5040690;28;45450;-60
2022/03/17 05:54:19;;;;;;;;;8.00;6.75;;;;;10.95;63.05;102475.22;5040934;28;45294;-59
2022/03/17 05:56:44;;;;;;;;;12.75;9.00;;;;;10.92;63.31;102485.91;5040569;28;45301;-59
2022/03/17 05:59:10;;;;;;;;;11.00;9.00;;;;;10.90;63.21;102485.91;5030190;28;46263;-60
2022/03/17 06:01:35;;;;;;;;;8.50;8.00;;;;;10.89;63.38;102486.84;5053974;28;45388;-59
2022/03/17 06:04:02;;;;;;;;;9.75;9.75;;;;;10.88;63.36;102493.03;5047876;28;45336;-59
2022/03/17 06:06:27;;;;;;;;;14.00;8.00;;;;;10.82;63.74;102490.56;5046446;28;45506;-59
2022/03/17 06:08:52;;;;;;;;;8.75;7.50;;;;;10.87;63.10;102505.34;5060714;28;46213;-60
2022/03/17 06:11:18;;;;;;;;;10.00;7.00;;;;;10.92;63.72;102512.25;5060525;28;45309;-60
2022/03/17 06:13:44;;;;;;;;;8.25;7.50;;;;;10.90;63.36;102507.91;5061063;28;45298;-59
2022/03/17 06:16:10;;;;;;;;;11.75;8.75;;;;;10.84;63.55;102510.72;5060148;28;45233;-60
2022/03/17 06:18:35;;;;;;;;;9.00;7.75;;;;;10.81;63.54;102531.03;5060821;28;45220;-59
2022/03/17 06:21:01;;;;;;;;;10.75;5.00;;;;;10.78;63.08;102526.72;5060432;28;45167;-59
2022/03/17 06:23:26;;;;;;;;;10.25;8.25;;;;;10.75;63.07;102533.91;5060698;28;45391;-59
2022/03/17 06:25:53;;;;;;;;;7.25;5.75;;;;;10.72;62.88;102542.72;5060522;28;45705;-59
2022/03/17 06:28:19;;;;;;;;;8.00;7.00;;;;;10.66;62.95;102550.81;5060363;28;45401;-59
2022/03/17 06:30:44;;;;;;;;;8.00;6.00;;;;;10.60;62.24;102551.03;5058164;28;45543;-59
2022/03/17 06:33:10;;;;;;;;;5.00;4.00;;;;;10.58;62.48;102556.31;5062927;28;45378;-59
2022/03/17 06:35:36;;;;;;;;;8.50;8.00;;;;;10.56;62.38;102562.56;5062929;28;45375;-60
2022/03/17 06:38:04;;;;;;;;;4.75;4.75;;;;;10.52;62.14;102567.06;5064071;28;45271;-59
2022/03/17 06:40:30;;;;;;;;;5.75;5.75;;;;;10.54;62.48;102572.28;5042110;28;45172;-59
2022/03/17 06:42:57;;;;;;;;;6.75;5.50;;;;;10.53;62.15;102591.66;5054238;28;45305;-59
2022/03/17 06:45:23;;;;;;;;;7.25;6.50;;;;;10.54;62.31;102601.28;5060740;28;45370;-59
2022/03/17 06:47:49;;;;;;;;;6.50;4.00;;;;;10.54;62.28;102596.00;5053503;28;45338;-59
2022/03/17 06:50:16;;;;;;;;;2.00;2.00;;;;;10.58;62.28;102606.41;5063558;28;45378;-58
2022/03/17 06:52:43;;;;;;;;;5.50;3.00;;;;;10.60;61.59;102612.50;5063806;28;45462;-61
2022/03/17 06:55:10;;;;;;;;;9.75;5.00;;;;;10.60;61.50;102612.50;5059198;28;45332;-59
2022/03/17 06:57:36;;;;;;;;;9.50;4.00;;;;;10.62;61.83;102612.47;5056806;28;45340;-59
2022/03/17 07:00:05;;;;;;;;;7.75;4.00;;;;;10.69;62.01;102626.31;5061106;28;45416;-59
2022/03/17 07:02:30;;;;;;;;;4.75;3.50;;;;;10.68;61.00;102621.97;5054571;28;45312;-58
2022/03/17 07:04:56;;;;;;;;;5.75;4.00;;;;;10.65;61.00;102616.75;5055282;28;45328;-59
2022/03/17 07:07:23;;;;;;;;;4.50;3.75;;;;;10.62;60.83;102633.53;5054743;28;45670;-59
2022/03/17 07:09:49;;;;;;;;;6.00;5.50;;;;;10.58;60.43;102635.38;5058439;28;45833;-59
2022/03/17 07:12:14;;;;;;;;;4.25;3.00;;;;;10.57;60.38;102640.69;5054528;28;45346;-58
2022/03/17 07:14:40;;;;;;;;;5.50;3.75;;;;;10.59;60.67;102646.81;5063167;28;45312;-58
2022/03/17 07:17:06;;;;;;;;;3.75;3.75;;;;;10.61;60.10;102647.63;5062969;28;45956;-59
2022/03/17 07:19:31;;;;;;;;;3.75;3.75;;;;;10.65;60.15;102651.03;5062968;28;45375;-58
2022/03/17 07:21:58;;;;;;;;;7.00;5.00;;;;;10.69;60.66;102657.94;5063414;28;45374;-58
2022/03/17 07:24:23;;;;;;;;;6.00;3.25;;;;;10.70;60.21;102663.16;5063116;28;45567;-58
2022/03/17 07:26:49;;;;;;;;;3.25;3.25;;;;;10.66;60.03;102664.16;5062836;28;45174;-57
2022/03/17 07:29:14;;;;;;;;;7.50;4.75;;;;;10.68;59.73;102669.41;5062053;28;45299;-58
2022/03/17 07:31:40;;;;;;;;;4.00;3.50;;;;;10.65;59.77;102670.34;5062714;28;45522;-58
2022/03/17 07:34:06;;;;;;;;;4.00;3.50;;;;;10.67;59.94;102680.84;5063054;28;45449;-58
2022/03/17 07:36:31;;;;;;;;;7.00;7.00;;;;;10.64;59.63;102673.88;5062558;28;45412;-58
2022/03/17 07:38:58;;;;;;;;;8.75;7.25;;;;;10.68;59.78;102688.72;5062592;28;45343;-58
2022/03/17 07:41:24;;;;;;;;;7.50;4.75;;;;;10.72;59.57;102687.72;5052675;28;45270;-58
2022/03/17 07:43:50;;;;;;;;;4.75;4.00;;;;;10.73;59.37;102683.28;5041853;28;45618;-58
2022/03/17 07:46:16;;;;;;;;;5.50;4.00;;;;;10.77;59.94;102687.59;5042300;28;45280;-58
2022/03/17 07:48:43;;;;;;;;;4.25;3.00;;;;;10.78;59.62;102689.31;5042388;28;45269;-57
2022/03/17 07:51:09;;;;;;;;;8.50;7.00;;;;;10.77;59.43;102690.22;5042629;28;45495;-58
2022/03/17 07:53:34;;;;;;;;;9.75;4.75;;;;;10.79;59.88;102697.16;5042337;28;45222;-58
2022/03/17 07:56:01;;;;;;;;;4.25;3.75;;;;;10.82;59.44;102693.56;5042361;28;45436;-58
2022/03/17 07:58:27;;;;;;;;;7.00;6.00;;;;;10.76;59.50;102710.44;5042089;28;45332;-58
2022/03/17 08:00:55;;;;;;;;;10.00;7.25;;;;;10.79;59.08;102718.25;5042363;28;45335;-58
2022/03/17 08:03:21;;;;;;;;;7.75;4.25;;;;;10.78;58.92;102718.31;5045800;28;45328;-58
2022/03/17 08:05:47;;;;;;;;;7.00;6.00;;;;;10.76;59.23;102725.41;5051803;28;46221;-57
2022/03/17 08:08:17;;;;;;;;;8.25;4.75;;;;;10.78;59.01;102729.72;5060867;28;45280;-58
2022/03/17 08:10:43;;;;;;;;;8.00;5.25;;;;;10.81;58.62;102726.13;5062444;28;45523;-58
2022/03/17 08:13:09;;;;;;;;;13.00;10.25;;;;;10.76;58.27;102728.03;5062269;28;45463;-58
2022/03/17 08:15:40;;;;;;;;;7.50;7.50;;;;;10.75;58.79;102736.88;5061740;28;45396;-58
2022/03/17 08:18:06;;;;;;;;;5.50;5.50;;;;;10.74;58.93;102745.66;5062190;28;45337;-58
2022/03/17 08:20:36;;;;;;;;;10.00;8.00;;;;;10.77;59.25;102743.81;5062448;28;45343;-58
2022/03/17 08:23:01;;;;;;;;;7.50;7.00;;;;;10.84;58.90;102750.63;5062592;28;45248;-58
2022/03/17 08:25:27;;;;;;;;;7.50;7.00;;;;;10.93;58.92;102757.41;5062033;28;45229;-58
2022/03/17 08:27:54;;;;;;;;;13.25;9.50;;;;;11.02;59.04;102764.19;5062132;28;45257;-58
2022/03/17 08:30:20;;;;;;;;;13.75;7.75;;;;;10.99;58.85;102766.94;5062035;28;45468;-58
2022/03/17 08:32:46;;;;;;;;;9.75;8.25;;;;;10.93;58.29;102761.84;5062123;28;45585;-58
2022/03/17 08:35:13;;;;;;;;;7.50;5.25;;;;;10.94;58.65;102768.84;5062021;28;46345;-58
2022/03/17 08:37:40;;;;;;;;;7.00;4.75;;;;;10.86;58.61;102771.69;5062181;28;45376;-58
2022/03/17 08:40:12;;;;;;;;;10.25;6.50;;;;;10.83;58.55;102775.28;5061835;28;45407;-58
2022/03/17 08:42:38;;;;;;;;;7.25;5.75;;;;;10.88;58.13;102781.28;5042203;28;45345;-58
2022/03/17 08:49:18;;;;;;;;;10.00;8.00;;;;;10.87;58.65;102786.59;5041679;28;45389;-58
2022/03/17 08:50:34;;;;;;;;;6.00;6.00;;;;;10.89;58.81;102800.59;5041859;28;45507;-58
2022/03/17 08:52:59;;;;;;;;;7.50;7.00;;;;;10.97;58.41;102819.69;5042053;28;45531;-58
2022/03/17 08:55:25;;;;;;;;;7.50;5.25;;;;;11.01;58.50;102809.94;5040676;28;45445;-58
2022/03/17 08:57:51;;;;;;;;;9.50;5.25;;;;;11.08;58.61;102817.66;5041129;28;45221;-58
2022/03/17 09:00:16;;;;;;;;;9.00;8.00;;;;;11.16;58.21;102826.22;5041512;28;45261;-57
2022/03/17 09:02:44;;;;;;;;;7.75;7.00;;;;;11.14;58.39;102840.34;5041587;28;45238;-58
2022/03/17 09:05:10;;;;;;;;;9.00;8.00;;;;;11.13;57.83;102833.31;5051225;28;45391;-57
2022/03/17 09:07:36;;;;;;;;;12.75;7.75;;;;;11.09;58.38;102837.84;5054923;28;45336;-58
2022/03/17 09:10:05;;;;;;;;;8.00;7.75;;;;;11.13;57.92;102838.59;5061723;28;45258;-58
2022/03/17 09:12:33;;;;;;;;;14.75;9.00;;;;;11.16;58.08;102844.66;5061740;28;45177;-58
2022/03/17 09:14:59;;;;;;;;;10.50;8.00;;;;;11.13;57.64;102833.31;5061097;28;45636;-58
2022/03/17 09:17:25;;;;;;;;;9.00;7.00;;;;;11.20;58.14;102837.53;5061173;28;45367;-58
2022/03/17 09:19:50;;;;;;;;;8.00;8.00;;;;;11.30;58.08;102846.94;5061718;28;45312;-58
2022/03/17 09:22:16;;;;;;;;;11.50;8.75;;;;;11.39;57.41;102840.53;5061404;28;45475;-58
2022/03/17 09:24:41;;;;;;;;;10.75;8.75;;;;;11.42;57.72;102849.19;5061172;28;45962;-58
2022/03/17 09:27:07;;;;;;;;;11.75;8.00;;;;;11.40;57.16;102851.03;5060991;28;45255;-58
2022/03/17 09:29:32;;;;;;;;;10.50;8.25;;;;;11.39;57.35;102853.72;5061101;28;45404;-58
2022/03/17 09:31:58;;;;;;;;;10.25;8.25;;;;;11.38;57.77;102859.91;5061176;28;45714;-58
2022/03/17 09:34:24;;;;;;;;;14.50;11.00;;;;;11.33;57.90;102867.94;5061059;28;45375;-58
2022/03/17 09:36:50;;;;;;;;;10.00;9.00;;;;;11.34;57.89;102872.31;5061013;28;45249;-57
2022/03/17 09:41:59;;;;;;;;;9.25;8.00;;;;;11.25;57.61;102879.63;5044974;28;45300;-58
2022/03/17 09:44:25;;;;;;;;;8.50;8.00;;;;;11.19;57.60;102875.38;5040513;28;45693;-57
2022/03/17 09:46:52;;;;;;;;;9.50;7.00;;;;;11.21;58.15;102878.81;5040818;28;45289;-58
2022/03/17 09:49:19;;;;;;;;;12.75;8.75;;;;;11.23;58.20;102882.31;5040767;28;45314;-58
2022/03/17 09:51:46;;;;;;;;;13.50;8.00;;;;;11.29;57.61;102875.97;5040979;28;45583;-57
2022/03/17 09:54:11;;;;;;;;;7.25;6.75;;;;;11.31;57.32;102880.31;5040757;28;46190;-58
2022/03/17 09:56:37;;;;;;;;;12.00;8.75;;;;;11.35;57.53;102871.38;5040579;28;45484;-58
2022/03/17 09:59:03;;;;;;;;;9.25;8.00;;;;;11.38;57.19;102887.16;5040749;28;45332;-58
2022/03/17 10:01:28;;;;;;;;;9.75;9.75;;;;;11.33;57.72;102894.31;5040604;28;45552;-58
2022/03/17 10:03:58;;;;;;;;;13.00;9.50;;;;;11.28;57.52;102896.22;5046558;28;45330;-59
2022/03/17 10:06:24;;;;;;;;;15.00;9.00;;;;;11.26;57.52;102895.41;5046720;28;45249;-58
2022/03/17 10:08:50;;;;;;;;;16.50;12.75;;;;;11.36;58.03;102898.63;5060383;28;45380;-58
2022/03/17 10:11:24;;;;;;;;;17.50;9.00;;;;;11.50;57.33;102904.41;5060710;28;45490;-59
2022/03/17 10:13:50;;;;;;;;;13.50;8.75;;;;;11.57;56.25;102908.59;5060298;28;45436;-58
2022/03/17 10:16:18;;;;;;;;;13.00;10.00;;;;;11.58;56.61;102898.91;5059902;28;45327;-59
2022/03/17 10:18:46;;;;;;;;;11.75;7.50;;;;;11.67;55.99;102903.91;5060654;28;45383;-58
2022/03/17 10:21:17;;;;;;;;;8.00;7.75;;;;;11.67;55.95;102902.13;5060574;28;45654;-59
2022/03/17 10:24:08;;;;;;;;;9.50;8.00;;;;;11.74;55.91;102900.19;5060253;28;45359;-58
2022/03/17 10:26:49;;;;;;;;;11.25;9.25;;;;;11.81;55.98;102908.81;5060700;28;45259;-58
2022/03/17 10:29:19;;;;;;;;;9.00;9.00;;;;;11.91;56.08;102905.00;5060257;28;45250;-58
2022/03/17 10:32:01;;;;;;;;;8.25;7.00;;;;;12.01;55.02;102903.81;5060264;28;45308;-58
2022/03/17 10:34:33;;;;;;;;;13.00;9.50;;;;;11.94;55.40;102916.34;5059949;28;46168;-58
2022/03/17 10:37:10;;;;;;;;;6.75;4.50;;;;;12.04;55.17;102916.91;5058823;28;45619;-58
2022/03/17 10:39:38;;;;;;;;;19.50;16.50;;;;;12.09;54.33;102920.28;5060242;28;45341;-58
2022/03/17 10:42:15;;;;;;;;;13.75;9.75;;;;;12.10;54.52;102923.81;5043238;28;45471;-58
2022/03/17 10:44:46;;;;;;;;;10.00;8.50;;;;;12.12;54.59;102937.81;5039799;28;46126;-57
2022/03/17 10:47:11;;;;;;;;;8.75;8.00;;;;;12.14;54.57;102938.63;5039794;28;45265;-58
2022/03/17 10:49:38;;;;;;;;;7.50;7.00;;;;;12.17;53.39;102935.91;5039931;28;45366;-56
2022/03/17 10:52:04;;;;;;;;;8.00;5.50;;;;;12.02;53.80;102937.25;5022251;28;45247;-57
2022/03/17 10:54:29;;;;;;;;;9.00;9.00;;;;;11.95;53.80;102940.97;5040139;28;45301;-58
2022/03/17 10:57:12;;;;;;;;;4.00;2.00;;;;;11.86;53.95;102959.75;5039917;28;45332;-57
2022/03/17 10:59:43;;;;;;;;;11.25;8.75;;;;;11.82;54.55;102948.38;5039764;28;45409;-58
2022/03/17 11:02:11;;;;;;;;;11.00;9.00;;;;;11.83;54.02;102949.25;5040002;28;45474;-57
2022/03/17 11:04:38;;;;;;;;;9.50;9.00;;;;;11.79;54.26;102955.50;5049427;28;45464;-57
2022/03/17 11:07:11;;;;;;;;;11.50;8.75;;;;;11.74;53.96;102968.81;5048898;28;45317;-57
2022/03/17 11:09:40;;;;;;;;;10.75;7.75;;;;;11.73;54.60;102962.69;5059905;28;45297;-58
2022/03/17 11:12:07;;;;;;;;;18.00;12.50;;;;;11.86;54.77;102955.31;5060200;28;45387;-58
2022/03/17 11:14:39;;;;;;;;;12.75;10.75;;;;;11.91;54.69;102956.03;5059350;28;45462;-58
2022/03/17 11:17:06;;;;;;;;;9.50;8.50;;;;;12.02;54.40;102956.59;5059910;28;45384;-58
2022/03/17 11:19:33;;;;;;;;;11.00;9.00;;;;;12.10;54.25;102972.22;5060629;28;45377;-57
2022/03/17 11:22:08;;;;;;;;;11.75;10.00;;;;;12.11;53.86;102975.72;5063275;28;45261;-58
2022/03/17 11:24:34;;;;;;;;;17.00;12.00;;;;;12.03;53.39;102978.59;5063134;28;46295;-58
2022/03/17 11:27:14;;;;;;;;;12.50;10.50;;;;;11.91;54.06;102971.88;5063384;28;45216;-57
2022/03/17 11:29:44;;;;;;;;;11.50;10.00;;;;;11.84;53.73;102970.31;5063059;28;45471;-57
2022/03/17 11:32:31;;;;;;;;;13.25;13.25;;;;;11.91;54.04;102974.50;5063163;28;45485;-57